Time;durP1;ratioP1;P1;durP2;ratioP2;P2;SDS_P1;SDS_P2;PMS_P1;PMS_P2;Temp;Humidity;BMP_temperature;BMP_pressure;BME280_temperature;BME280_humidity;BME280_pressure;Samples;Min_cycle;Max_cycle;Signal;HPM_P1;HPM_P2
2023/10/11 00:02:05;;;;;;;19.00;13.80;;;;;;;11.57;100.00;100322.67;133917;1297;22424;-75
2023/10/11 00:05:12;;;;;;;19.80;15.10;;;;;;;11.58;100.00;100321.14;133806;1304;22270;-75
2023/10/11 00:08:43;;;;;;;24.70;16.10;;;;;;;11.59;100.00;100319.94;133794;1299;23083;-75
2023/10/11 00:11:47;;;;;;;17.60;13.20;;;;;;;11.61;100.00;100322.02;133959;1297;22423;-73
2023/10/11 00:15:13;;;;;;;20.30;15.20;;;;;;;11.61;100.00;100327.55;133965;1298;22398;-73
2023/10/11 00:18:34;;;;;;;31.40;19.40;;;;;;;11.62;100.00;100328.48;133972;1304;22525;-73
2023/10/11 00:21:45;;;;;;;21.40;14.40;;;;;;;11.63;100.00;100322.00;134011;1297;22375;-72
2023/10/11 00:24:50;;;;;;;17.50;13.40;;;;;;;11.63;100.00;100320.95;133986;1304;23280;-73
2023/10/11 00:27:54;;;;;;;17.00;13.40;;;;;;;11.64;100.00;100319.30;133995;1304;22410;-73
2023/10/11 00:31:16;;;;;;;18.10;13.30;;;;;;;11.64;100.00;100310.96;133923;1304;22398;-73
2023/10/11 00:34:34;;;;;;;19.60;14.20;;;;;;;11.63;100.00;100303.95;133961;1296;22388;-73
2023/10/11 00:38:11;;;;;;;18.80;14.30;;;;;;;11.63;100.00;100297.77;134056;1304;22484;-72
2023/10/11 00:41:53;;;;;;;19.90;13.50;;;;;;;11.62;100.00;100294.88;134029;1304;22408;-72
2023/10/11 00:45:02;;;;;;;18.10;13.50;;;;;;;11.61;100.00;100295.89;134050;1304;23203;-73
2023/10/11 00:48:19;;;;;;;19.10;13.60;;;;;;;11.61;100.00;100297.84;134034;1305;22477;-74
2023/10/11 00:51:48;;;;;;;18.60;13.50;;;;;;;11.60;100.00;100296.98;134035;1299;22441;-73
2023/10/11 00:55:26;;;;;;;22.90;15.00;;;;;;;11.61;100.00;100299.61;134046;1297;22376;-72
2023/10/11 00:58:52;;;;;;;21.80;14.30;;;;;;;11.62;100.00;100296.42;133890;1297;22379;-73
2023/10/11 01:02:12;;;;;;;;;;;;;;;;;;;;;
2023/10/11 01:05:33;;;;;;;21.00;15.20;;;;;;;11.67;100.00;100291.25;134031;1304;22486;-72
2023/10/11 01:08:43;;;;;;;19.20;13.70;;;;;;;11.70;100.00;100289.72;134067;1304;22396;-74
2023/10/11 01:11:57;;;;;;;;;;;;;;;;;;;;;
2023/10/11 01:15:35;;;;;;;;;;;;;;;;;;;;;
2023/10/11 01:19:26;;;;;;;;;;;;;;;;;;;;;
2023/10/11 01:22:57;;;;;;;21.70;15.30;;;;;;;11.74;100.00;100264.46;133741;1301;22293;-73
2023/10/11 01:27:05;;;;;;;22.10;15.50;;;;;;;11.74;100.00;100257.38;133769;1301;22275;-73
2023/10/11 01:29:45;;;;;;;19.20;15.10;;;;;;;11.73;100.00;100251.73;133677;1301;22439;-72
2023/10/11 01:33:20;;;;;;;20.10;15.50;;;;;;;11.71;100.00;100251.00;133760;1300;22460;-72
2023/10/11 01:36:30;;;;;;;19.10;15.30;;;;;;;11.70;100.00;100244.73;133771;1301;22298;-73
2023/10/11 01:43:42;;;;;;;22.70;15.60;;;;;;;11.71;100.00;100254.79;133939;1301;22271;-74
2023/10/11 01:47:16;;;;;;;19.00;15.30;;;;;;;11.71;100.00;100252.44;134074;1304;22459;-73
2023/10/11 01:50:47;;;;;;;18.90;16.30;;;;;;;11.72;100.00;100249.34;134022;1299;22391;-74
2023/10/11 01:54:22;;;;;;;23.10;15.70;;;;;;;11.73;100.00;100246.72;134058;1297;22245;-73
2023/10/11 01:57:39;;;;;;;27.80;17.30;;;;;;;11.75;100.00;100239.64;134058;1298;22433;-74
2023/10/11 02:01:38;;;;;;;;;;;;;;;;;;;;;
2023/10/11 02:04:59;;;;;;;24.40;17.80;;;;;;;11.76;100.00;100240.15;133922;1298;23122;-73
2023/10/11 02:08:17;;;;;;;27.10;17.50;;;;;;;11.76;100.00;100241.38;134002;1297;22587;-73
2023/10/11 02:11:26;;;;;;;24.20;17.40;;;;;;;11.77;100.00;100250.52;134036;1304;22383;-73
2023/10/11 02:14:53;;;;;;;22.60;15.80;;;;;;;11.79;100.00;100252.64;134060;1304;22426;-72
2023/10/11 02:18:28;;;;;;;21.50;15.50;;;;;;;11.78;100.00;100249.83;134084;1298;22484;-73
2023/10/11 02:26:56;;;;;;;22.10;15.10;;;;;;;11.79;100.00;100242.88;133287;1304;22330;-74
2023/10/11 02:30:49;;;;;;;;;;;;;;;;;;;;;
2023/10/11 02:34:27;;;;;;;;;;;;;;;;;;;;;
2023/10/11 02:37:59;;;;;;;30.90;20.60;;;;;;;11.77;100.00;100230.86;133931;1300;22475;-73
2023/10/11 02:41:36;;;;;;;;;;;;;;;;;;;;;
2023/10/11 02:44:51;;;;;;;21.90;15.60;;;;;;;11.79;100.00;100222.27;133859;1300;22542;-74
2023/10/11 02:48:18;;;;;;;;;;;;;;;;;;;;;
2023/10/11 02:52:11;;;;;;;28.10;18.30;;;;;;;11.81;100.00;100225.29;134044;1305;22376;-73
2023/10/11 02:56:01;;;;;;;35.40;19.50;;;;;;;11.80;100.00;100221.45;133965;1300;22358;-73
2023/10/11 02:59:36;;;;;;;20.40;16.00;;;;;;;11.79;100.00;100217.13;134083;1300;22387;-74
2023/10/11 03:03:10;;;;;;;;;;;;;;;;;;;;;
2023/10/11 03:06:51;;;;;;;;;;;;;;;;;;;;;
2023/10/11 03:10:23;;;;;;;;;;;;;;;;;;;;;
2023/10/11 03:14:04;;;;;;;21.80;15.20;;;;;;;11.73;100.00;100215.88;133957;1297;22280;-73
2023/10/11 03:18:32;;;;;;;18.80;13.50;;;;;;;11.72;100.00;100211.93;133845;1297;22439;-73
2023/10/11 03:21:33;;;;;;;25.50;15.20;;;;;;;11.67;100.00;100206.23;133877;1304;22469;-72
2023/10/11 03:25:22;;;;;;;;;;;;;;;;;;;;;
2023/10/11 03:29:22;;;;;;;21.40;15.50;;;;;;;11.65;100.00;100209.41;134035;1304;22317;-74
2023/10/11 03:32:53;;;;;;;25.10;15.20;;;;;;;11.63;100.00;100208.10;134037;1297;22480;-73
2023/10/11 03:36:31;;;;;;;;;;;;;;;;;;;;;
2023/10/11 03:39:42;;;;;;;19.70;16.00;;;;;;;11.57;100.00;100209.98;134044;1297;22580;-74
2023/10/11 03:42:59;;;;;;;21.30;15.50;;;;;;;11.55;100.00;100207.04;134038;1304;22336;-73
2023/10/11 03:46:54;;;;;;;20.60;16.00;;;;;;;11.53;100.00;100206.52;134059;1304;22444;-73
2023/10/11 03:50:24;;;;;;;22.20;16.10;;;;;;;11.49;100.00;100201.88;133996;1297;22393;-74
2023/10/11 03:53:58;;;;;;;;;;;;;;;;;;;;;
2023/10/11 03:57:13;;;;;;;24.00;14.90;;;;;;;11.45;100.00;100197.87;134044;1297;22244;-73
2023/10/11 04:01:04;;;;;;;22.80;15.40;;;;;;;11.44;100.00;100193.59;134087;1294;22277;-73
2023/10/11 04:04:28;;;;;;;27.40;17.50;;;;;;;11.42;100.00;100188.27;133912;1300;22470;-73
2023/10/11 04:07:57;;;;;;;21.30;15.80;;;;;;;11.42;100.00;100184.55;134061;1303;23318;-73
2023/10/11 04:11:29;;;;;;;;;;;;;;;;;;;;;
2023/10/11 04:15:12;;;;;;;;;;;;;;;;;;;;;
2023/10/11 04:22:49;;;;;;;;;;;;;;;;;;;;;
2023/10/11 04:29:51;;;;;;;;;;;;;;;;;;;;;
2023/10/11 04:33:22;;;;;;;24.90;17.40;;;;;;;11.37;100.00;100186.26;133945;1297;23031;-74
2023/10/11 04:37:06;;;;;;;;;;;;;;;;;;;;;
2023/10/11 04:43:40;;;;;;;23.10;16.00;;;;;;;11.37;100.00;100184.83;134033;1298;22431;-77
2023/10/11 04:46:55;;;;;;;22.40;16.40;;;;;;;11.37;100.00;100186.39;134017;1301;23380;-79
2023/10/11 04:49:59;;;;;;;23.40;17.60;;;;;;;11.36;100.00;100184.53;134029;1297;23077;-77
2023/10/11 04:53:05;;;;;;;24.40;17.20;;;;;;;11.38;100.00;100180.79;133705;1297;22408;-76
2023/10/11 05:03:29;;;;;;;32.60;21.10;;;;;;;11.42;100.00;100162.89;133798;1301;22435;-75
2023/10/11 05:06:40;;;;;;;33.00;22.00;;;;;;;11.44;100.00;100160.41;134025;1297;22612;-75
2023/10/11 05:09:52;;;;;;;32.30;20.40;;;;;;;11.46;100.00;100159.14;133893;1298;22397;-75
2023/10/11 05:13:36;;;;;;;34.20;18.90;;;;;;;11.50;100.00;100156.96;133985;1300;22256;-75
2023/10/11 05:16:44;;;;;;;24.60;17.80;;;;;;;11.53;100.00;100158.25;133808;1300;22351;-77
2023/10/11 05:24:14;;;;;;;23.40;16.30;;;;;;;11.60;100.00;100162.95;133156;1301;22380;-76
2023/10/11 05:27:47;;;;;;;;;;;;;;;;;;;;;
2023/10/11 05:35:21;;;;;;;24.50;17.30;;;;;;;11.80;100.00;100173.98;133553;1301;22459;-76
2023/10/11 05:57:34;;;;;;;33.60;19.00;;;;;;;12.78;100.00;100175.50;134035;1300;22264;-77
2023/10/11 06:01:05;;;;;;;23.50;18.00;;;;;;;12.96;100.00;100172.31;133889;1298;22349;-76
2023/10/11 06:04:44;;;;;;;26.70;16.80;;;;;;;13.11;100.00;100167.57;134069;1297;23258;-77
2023/10/11 06:08:16;;;;;;;;;;;;;;;;;;;;;
2023/10/11 06:11:48;;;;;;;;;;;;;;;;;;;;;
2023/10/11 06:15:36;;;;;;;23.10;15.00;;;;;;;13.94;100.00;100169.16;133892;1302;23872;-77
2023/10/11 06:20:23;;;;;;;24.60;14.20;;;;;;;14.06;100.00;100168.08;134092;1301;23524;-77
2023/10/11 06:23:39;;;;;;;;;;;;;;;;;;;;;
2023/10/11 06:26:52;;;;;;;20.10;12.60;;;;;;;14.33;100.00;100167.47;133827;1303;22483;-79
2023/10/11 06:37:51;;;;;;;;;;;;;;;;;;;;;
2023/10/11 06:46:08;;;;;;;21.70;10.60;;;;;;;15.02;98.48;100153.09;133398;1304;22418;-78
2023/10/11 06:49:20;;;;;;;17.40;9.70;;;;;;;15.27;98.01;100154.03;133998;1296;22423;-78
2023/10/11 06:53:08;;;;;;;;;;;;;;;;;;;;;
2023/10/11 06:56:53;;;;;;;;;;;;;;;;;;;;;
2023/10/11 07:00:37;;;;;;;12.80;8.30;;;;;;;15.77;95.27;100152.05;134051;1295;22160;-77
2023/10/11 07:03:46;;;;;;;16.00;8.70;;;;;;;15.94;94.44;100145.15;134055;1297;22248;-78
2023/10/11 07:07:01;;;;;;;17.10;9.00;;;;;;;16.11;94.13;100140.55;133818;1305;22368;-78
2023/10/11 07:10:27;;;;;;;16.50;8.20;;;;;;;16.41;94.05;100144.70;134051;1298;22381;-78
2023/10/11 07:17:39;;;;;;;15.70;7.70;;;;;;;17.14;93.01;100138.76;133175;1305;23282;-79
2023/10/11 07:21:09;;;;;;;14.70;8.40;;;;;;;17.29;91.65;100137.87;134042;1297;22208;-80
2023/10/11 07:28:50;;;;;;;15.40;7.30;;;;;;;17.67;90.21;100136.41;133812;1300;22290;-79
2023/10/11 07:31:54;;;;;;;17.00;7.70;;;;;;;17.91;90.28;100134.16;133968;1301;23205;-78
2023/10/11 07:35:27;;;;;;;12.70;6.70;;;;;;;18.16;89.10;100131.12;133986;1298;23346;-78
2023/10/11 07:39:00;;;;;;;19.00;7.30;;;;;;;18.36;87.97;100129.91;134076;1297;23439;-79
2023/10/11 07:42:18;;;;;;;16.20;6.60;;;;;;;18.57;86.50;100128.73;133771;1300;22397;-79
2023/10/11 07:45:32;;;;;;;16.30;6.60;;;;;;;18.79;86.47;100128.61;133969;1304;22391;-79
2023/10/11 07:49:19;;;;;;;;;;;;;;;;;;;;;
2023/10/11 07:52:40;;;;;;;17.10;6.50;;;;;;;19.29;84.68;100127.55;133898;1301;22498;-78
2023/10/11 07:55:50;;;;;;;17.40;6.20;;;;;;;19.46;83.85;100122.52;134011;1299;23145;-80
2023/10/11 07:59:41;;;;;;;;;;;;;;;;;;;;;
2023/10/11 08:03:11;;;;;;;12.30;6.50;;;;;;;19.80;81.86;100115.76;133899;1299;23816;-80
2023/10/11 08:06:43;;;;;;;15.60;6.20;;;;;;;19.99;81.29;100116.48;134014;1297;22467;-78
2023/10/11 08:09:55;;;;;;;14.20;6.50;;;;;;;20.08;80.93;100114.52;134005;1298;22281;-80
2023/10/11 08:14:14;;;;;;;15.80;6.40;;;;;;;20.13;80.09;100114.17;134009;1297;22357;-78
2023/10/11 08:17:30;;;;;;;;;;;;;;;;;;;;;
2023/10/11 08:20:34;;;;;;;15.40;6.60;;;;;;;20.34;78.99;100108.92;133861;1300;22255;-79
2023/10/11 08:28:04;;;;;;;13.80;5.50;;;;;;;20.46;77.55;100109.15;133920;1301;22459;-79
2023/10/11 08:31:57;;;;;;;15.10;6.40;;;;;;;20.74;77.16;100101.67;134023;1298;22433;-78
2023/10/11 08:35:31;;;;;;;11.80;6.30;;;;;;;20.97;74.78;100102.52;134015;1300;22438;-78
2023/10/11 08:39:35;;;;;;;13.50;5.90;;;;;;;21.17;75.28;100105.08;134065;1299;22392;-78
2023/10/11 08:42:31;;;;;;;12.60;6.60;;;;;;;21.50;74.77;100096.95;133911;1304;22192;-80
2023/10/11 08:46:05;;;;;;;17.50;6.10;;;;;;;21.79;74.57;100090.10;134075;1297;22374;-79
2023/10/11 08:53:14;;;;;;;14.00;5.50;;;;;;;22.41;72.60;100081.38;133879;1299;23125;-77
2023/10/11 08:57:17;;;;;;;;;;;;;;;;;;;;;
2023/10/11 09:01:01;;;;;;;13.30;5.90;;;;;;;22.29;69.97;100079.46;133839;1298;22467;-78
2023/10/11 09:04:51;;;;;;;18.30;5.40;;;;;;;22.18;69.35;100089.20;134079;1297;22229;-78
2023/10/11 09:08:41;;;;;;;16.10;5.70;;;;;;;22.04;69.11;100086.72;133781;1303;22378;-78
2023/10/11 09:16:12;;;;;;;13.00;5.60;;;;;;;21.52;68.26;100088.39;133485;1304;22368;-77
2023/10/11 09:20:14;;;;;;;12.40;5.70;;;;;;;21.31;68.34;100084.17;133731;1302;22379;-78
2023/10/11 09:28:06;;;;;;;17.40;5.60;;;;;;;21.07;68.36;100086.66;133841;1304;22463;-77
2023/10/11 09:31:20;;;;;;;16.30;6.60;;;;;;;21.13;68.41;100084.57;134042;1297;23184;-77
2023/10/11 09:35:17;;;;;;;14.80;6.00;;;;;;;21.22;68.35;100087.25;133973;1300;22556;-77
2023/10/11 09:38:43;;;;;;;13.70;6.30;;;;;;;21.27;67.98;100083.63;133878;1301;22459;-76
2023/10/11 09:45:16;;;;;;;13.80;6.10;;;;;;;21.18;67.65;100078.05;134065;1304;23716;-77
2023/10/11 09:48:37;;;;;;;;;;;;;;;;;;;;;
2023/10/11 09:52:59;;;;;;;12.50;5.90;;;;;;;21.85;67.81;100071.90;134025;1305;22398;-79
2023/10/11 09:56:36;;;;;;;13.80;5.80;;;;;;;22.21;66.38;100076.51;134095;1304;22433;-77
2023/10/11 10:00:08;;;;;;;14.80;5.80;;;;;;;22.25;65.46;100074.31;133881;1303;23849;-76
2023/10/11 10:04:20;;;;;;;11.80;6.20;;;;;;;22.14;65.44;100078.09;134044;1302;22481;-76
2023/10/11 10:07:58;;;;;;;;;;;;;;;;;;;;;
2023/10/11 10:11:42;;;;;;;;;;;;;;;;;;;;;
2023/10/11 10:15:46;;;;;;;;;;;;;;;;;;;;;
2023/10/11 10:24:18;;;;;;;;;;;;;;;;;;;;;
2023/10/11 10:27:52;;;;;;;14.90;5.50;;;;;;;22.96;63.19;100083.86;133989;1303;22488;-77
2023/10/11 10:32:02;;;;;;;;;;;;;;;;;;;;;
2023/10/11 10:36:03;;;;;;;;;;;;;;;;;;;;;
2023/10/11 10:43:20;;;;;;;;;;;;;;;;;;;;;
2023/10/11 10:51:03;;;;;;;;;;;;;;;;;;;;;
2023/10/11 10:54:14;;;;;;;17.40;6.10;;;;;;;22.63;59.69;100086.48;133971;1302;22415;-78
2023/10/11 10:57:51;;;;;;;;;;;;;;;;;;;;;
2023/10/11 11:01:05;;;;;;;12.00;5.90;;;;;;;22.31;59.95;100076.95;133907;1303;23613;-76
2023/10/11 11:04:50;;;;;;;;;;;;;;;;;;;;;
2023/10/11 11:08:48;;;;;;;13.70;5.70;;;;;;;21.89;60.42;100070.84;134060;1300;22469;-75
2023/10/11 11:12:17;;;;;;;18.60;7.20;;;;;;;21.81;60.49;100064.48;133695;1298;23509;-77
2023/10/11 11:15:34;;;;;;;;;;;;;;;;;;;;;
2023/10/11 11:19:19;;;;;;;11.80;5.80;;;;;;;22.02;61.04;100059.88;133957;1298;22422;-80
2023/10/11 11:22:52;;;;;;;;;;;;;;;;;;;;;
2023/10/11 11:26:21;;;;;;;13.50;6.40;;;;;;;22.73;60.90;100051.74;133933;1304;22442;-80
2023/10/11 11:30:17;;;;;;;16.50;5.80;;;;;;;23.03;60.78;100049.00;133922;1298;22868;-78
2023/10/11 11:34:07;;;;;;;21.10;6.60;;;;;;;23.21;60.00;100047.45;133910;1298;22395;-77
2023/10/11 11:37:22;;;;;;;19.70;6.40;;;;;;;23.39;60.10;100040.02;133927;1303;22486;-76
2023/10/11 11:41:16;;;;;;;19.10;6.20;;;;;;;23.55;59.80;100034.73;133857;1300;22383;-78
2023/10/11 11:47:23;;;;;;;13.50;5.20;;;;;;;23.41;58.65;100026.35;133600;1299;22517;-77
2023/10/11 11:50:34;;;;;;;9.40;5.60;;;;;;;23.38;58.12;100025.45;133919;1298;22384;-77
2023/10/11 11:53:35;;;;;;;11.00;5.30;;;;;;;23.44;58.22;100021.84;133662;1298;22383;-78
2023/10/11 11:57:02;;;;;;;18.10;5.90;;;;;;;23.50;57.59;100023.59;133878;1300;22390;-78
2023/10/11 12:00:21;;;;;;;11.50;5.60;;;;;;;23.46;56.97;100016.34;133848;1299;22443;-78
2023/10/11 12:03:24;;;;;;;12.20;6.30;;;;;;;23.42;56.58;100010.77;133981;1298;22427;-79
2023/10/11 12:06:34;;;;;;;14.40;5.60;;;;;;;23.35;56.74;100010.79;133955;1298;22411;-78
2023/10/11 12:09:51;;;;;;;15.70;5.90;;;;;;;23.28;56.27;100013.86;133918;1300;23389;-79
2023/10/11 12:13:05;;;;;;;11.70;5.60;;;;;;;23.21;56.35;100020.77;133917;1304;23343;-79
2023/10/11 12:16:22;;;;;;;16.30;5.70;;;;;;;23.15;56.13;100018.54;133870;1304;22426;-78
2023/10/11 12:19:55;;;;;;;;;;;;;;;;;;;;;
2023/10/11 12:23:07;;;;;;;21.20;5.60;;;;;;;23.07;55.72;100012.80;134001;1300;22441;-78
2023/10/11 12:26:26;;;;;;;15.10;5.60;;;;;;;23.01;55.48;100008.88;134052;1298;22410;-77
2023/10/11 12:29:48;;;;;;;13.30;5.60;;;;;;;23.01;56.01;100009.58;134014;1298;22265;-78
2023/10/11 12:32:52;;;;;;;12.90;5.10;;;;;;;23.01;56.19;100012.67;134022;1298;22439;-78
2023/10/11 12:35:58;;;;;;;13.40;5.40;;;;;;;23.06;56.58;100015.59;133884;1298;23070;-78
2023/10/11 12:39:05;;;;;;;17.60;5.90;;;;;;;23.09;56.41;100015.20;134028;1298;22411;-77
2023/10/11 12:42:22;;;;;;;15.80;4.70;;;;;;;23.04;55.97;100012.33;133999;1298;22398;-78
2023/10/11 12:45:23;;;;;;;24.00;6.70;;;;;;;22.99;56.06;100016.05;134013;1304;23228;-78
2023/10/11 12:49:04;;;;;;;;;;;;;;;;;;;;;
2023/10/11 12:52:30;;;;;;;14.90;5.60;;;;;;;22.95;56.24;100011.01;133615;1305;22158;-78
2023/10/11 12:55:55;;;;;;;15.60;5.80;;;;;;;22.95;56.27;100002.64;133890;1297;23458;-80
2023/10/11 13:00:28;;;;;;;17.20;5.70;;;;;;;22.94;56.17;100000.45;133994;1298;23217;-78
2023/10/11 13:03:43;;;;;;;14.40;5.70;;;;;;;22.96;56.09;99999.71;133893;1300;22441;-80
2023/10/11 13:07:00;;;;;;;18.00;5.90;;;;;;;22.95;56.30;99991.91;133806;1298;22598;-77
2023/10/11 13:10:44;;;;;;;14.60;5.50;;;;;;;22.96;56.48;99987.64;133863;1299;22432;-77
2023/10/11 13:14:01;;;;;;;11.50;5.40;;;;;;;22.99;56.21;99981.96;133747;1301;23641;-76
2023/10/11 13:17:44;;;;;;;12.80;6.00;;;;;;;22.99;56.29;99976.71;133871;1298;22287;-77
2023/10/11 13:21:26;;;;;;;;;;;;;;;;;;;;;
2023/10/11 13:24:47;;;;;;;13.90;5.50;;;;;;;23.03;56.46;99964.23;133737;1303;22510;-79
2023/10/11 13:28:13;;;;;;;;;;;;;;;;;;;;;
2023/10/11 13:31:17;;;;;;;10.60;5.20;;;;;;;23.05;55.63;99962.17;133725;1303;22377;-79
2023/10/11 13:34:21;;;;;;;12.20;5.40;;;;;;;23.01;55.46;99961.10;133738;1298;22481;-76
2023/10/11 13:37:46;;;;;;;12.10;5.10;;;;;;;22.99;55.89;99963.61;133871;1300;22500;-76
2023/10/11 13:40:59;;;;;;;14.40;5.60;;;;;;;22.95;55.06;99970.23;133862;1299;22373;-77
2023/10/11 13:44:18;;;;;;;12.60;4.80;;;;;;;22.88;55.30;99979.14;133890;1300;22627;-76
2023/10/11 13:47:33;;;;;;;9.10;4.30;;;;;;;22.82;55.10;99979.02;133753;1301;22227;-80
2023/10/11 13:51:03;;;;;;;12.50;5.60;;;;;;;22.80;55.01;99974.77;133843;1299;22415;-77
2023/10/11 13:54:18;;;;;;;11.40;4.90;;;;;;;22.78;55.27;99979.13;133898;1298;22379;-77
2023/10/11 13:57:55;;;;;;;;;;;;;;;;;;;;;
2023/10/11 14:01:59;;;;;;;11.00;5.00;;;;;;;22.67;54.99;99976.54;133483;1303;23315;-80
2023/10/11 14:05:13;;;;;;;11.90;5.40;;;;;;;22.53;54.83;99975.70;133472;1303;23682;-76
2023/10/11 14:12:11;;;;;;;14.00;5.90;;;;;;;22.35;55.27;99976.09;133649;1301;23282;-81
2023/10/11 14:15:18;;;;;;;6.70;4.80;;;;;;;22.30;55.37;99972.23;133579;1302;25199;-78
2023/10/11 14:18:24;;;;;;;16.70;4.50;;;;;;;22.26;55.39;99966.77;133716;1301;22518;-77
2023/10/11 14:21:46;;;;;;;;;;;;;;;;;;;;;
2023/10/11 14:25:09;;;;;;;15.80;5.90;;;;;;;22.10;55.60;99960.13;133649;1307;23055;-77
2023/10/11 14:28:28;;;;;;;;;;;;;;;;;;;;;
2023/10/11 14:32:50;;;;;;;14.90;6.20;;;;;;;21.88;55.79;99951.83;134029;1297;22193;-76
2023/10/11 14:35:56;;;;;;;17.10;6.60;;;;;;;21.79;55.95;99944.45;133901;1298;23161;-79
2023/10/11 14:39:23;;;;;;;18.70;7.20;;;;;;;21.70;56.30;99943.48;134049;1300;22278;-75
2023/10/11 14:42:51;;;;;;;19.20;9.60;;;;;;;21.64;56.54;99943.91;133744;1300;22409;-76
2023/10/11 14:46:09;;;;;;;24.20;8.60;;;;;;;21.54;56.81;99944.33;134063;1297;22288;-75
2023/10/11 14:49:13;;;;;;;12.70;7.20;;;;;;;21.46;56.99;99941.77;134053;1300;22945;-75
2023/10/11 14:52:46;;;;;;;15.20;6.10;;;;;;;21.42;57.06;99938.73;134036;1300;22439;-76
2023/10/11 14:55:57;;;;;;;;;;;;;;;;;;;;;
2023/10/11 14:59:27;;;;;;;15.40;6.50;;;;;;;21.24;57.30;99938.69;134063;1299;23351;-75
2023/10/11 15:02:34;;;;;;;13.10;6.60;;;;;;;21.13;57.34;99939.88;134004;1298;22531;-76
2023/10/11 15:05:38;;;;;;;13.20;6.50;;;;;;;21.05;57.47;99940.10;134065;1298;23332;-76
2023/10/11 15:09:09;;;;;;;17.30;7.50;;;;;;;20.97;57.74;99942.96;134081;1298;22345;-76
2023/10/11 15:12:36;;;;;;;14.80;5.90;;;;;;;20.87;57.80;99942.11;133861;1299;22287;-75
2023/10/11 15:15:47;;;;;;;14.20;5.80;;;;;;;20.75;57.99;99935.99;133981;1297;22323;-76
2023/10/11 15:18:51;;;;;;;14.90;5.40;;;;;;;20.67;58.11;99933.13;133892;1300;22474;-75
2023/10/11 15:22:07;;;;;;;15.10;5.80;;;;;;;20.59;58.18;99937.38;133975;1298;22363;-76
2023/10/11 15:25:13;;;;;;;16.00;5.50;;;;;;;20.51;58.35;99938.22;133964;1303;23562;-75
2023/10/11 15:28:24;;;;;;;12.60;6.00;;;;;;;20.45;58.57;99934.67;133907;1299;22485;-75
2023/10/11 15:31:29;;;;;;;;;;;;;;;20.35;58.66;99934.56;133944;1298;22450;-75
2023/10/11 15:34:30;;;;;;;14.00;5.90;;;;;;;20.26;58.90;99936.89;133907;1305;23537;-75
2023/10/11 15:37:51;;;;;;;15.50;6.10;;;;;;;20.16;59.12;99936.94;133922;1305;22390;-76
2023/10/11 15:41:22;;;;;;;18.60;7.10;;;;;;;20.07;59.32;99937.42;134011;1297;22420;-75
2023/10/11 15:44:26;;;;;;;15.30;6.70;;;;;;;19.97;59.55;99938.70;133785;1300;22385;-75
2023/10/11 15:47:36;;;;;;;14.90;6.90;;;;;;;19.90;59.65;99935.67;133996;1300;22180;-75
2023/10/11 15:50:42;;;;;;;16.50;5.80;;;;;;;19.83;59.85;99937.27;133756;1305;22381;-75
2023/10/11 15:54:01;;;;;;;11.70;5.70;;;;;;;19.78;60.07;99936.63;133983;1297;22359;-75
2023/10/11 15:57:07;;;;;;;16.90;6.10;;;;;;;19.73;60.23;99937.20;133903;1300;22391;-75
2023/10/11 16:00:31;;;;;;;18.40;5.90;;;;;;;19.67;60.43;99931.56;133960;1298;22201;-76
2023/10/11 16:03:44;;;;;;;14.10;5.50;;;;;;;19.61;60.58;99924.83;133958;1299;22279;-77
2023/10/11 16:06:53;;;;;;;15.50;5.90;;;;;;;19.56;60.67;99921.22;133863;1300;22278;-76
2023/10/11 16:10:02;;;;;;;18.40;5.60;;;;;;;19.51;60.85;99928.54;133918;1297;22598;-76
2023/10/11 16:13:13;;;;;;;16.90;5.50;;;;;;;19.47;60.98;99933.23;133909;1295;22487;-76
2023/10/11 16:16:16;;;;;;;11.50;5.30;;;;;;;19.44;61.16;99927.61;133957;1302;22463;-77
2023/10/11 16:19:47;;;;;;;16.40;6.40;;;;;;;19.44;61.20;99926.70;133924;1294;22379;-76
2023/10/11 16:23:03;;;;;;;14.90;5.70;;;;;;;19.43;61.32;99926.06;133849;1299;23203;-74
2023/10/11 16:26:13;;;;;;;14.40;6.20;;;;;;;19.39;61.45;99927.70;133936;1304;22045;-75
2023/10/11 16:29:17;;;;;;;15.70;6.30;;;;;;;19.36;61.59;99932.87;133888;1297;22274;-75
2023/10/11 16:32:18;;;;;;;12.80;5.60;;;;;;;19.32;61.71;99934.49;133896;1300;23179;-74
2023/10/11 16:35:32;;;;;;;16.00;6.20;;;;;;;19.26;61.89;99930.64;133969;1300;23146;-74
2023/10/11 16:38:33;;;;;;;11.90;6.20;;;;;;;19.21;62.07;99933.19;133946;1297;22988;-75
2023/10/11 16:41:37;;;;;;;13.50;5.70;;;;;;;19.16;62.19;99934.88;133929;1304;22402;-74
2023/10/11 16:44:47;;;;;;;16.90;5.10;;;;;;;19.11;62.28;99940.56;133942;1299;22305;-75
2023/10/11 16:48:10;;;;;;;18.00;7.50;;;;;;;19.05;62.51;99944.52;134020;1285;22374;-74
2023/10/11 16:51:11;;;;;;;14.40;6.60;;;;;;;18.98;62.72;99944.88;133955;1294;22513;-75
2023/10/11 16:54:18;;;;;;;16.30;8.10;;;;;;;18.91;62.86;99944.67;133861;1294;22485;-74
2023/10/11 16:57:49;;;;;;;;;;;;;;;;;;;;;
2023/10/11 17:00:56;;;;;;;15.40;6.10;;;;;;;18.77;63.22;99944.05;133982;1299;22417;-74
2023/10/11 17:04:02;;;;;;;24.30;7.30;;;;;;;18.72;63.43;99943.78;134003;1297;22399;-76
2023/10/11 17:07:25;;;;;;;;;;;;;;;;;;;;;
2023/10/11 17:10:48;;;;;;;17.70;7.70;;;;;;;18.63;63.79;99946.08;133968;1299;22485;-76
2023/10/11 17:14:08;;;;;;;16.90;8.20;;;;;;;18.60;64.04;99946.61;133993;1298;23002;-74
2023/10/11 17:17:50;;;;;;;12.30;5.90;;;;;;;18.56;64.22;99944.29;134104;1304;22482;-75
2023/10/11 17:21:26;;;;;;;;;;;;;;;;;;;;;
2023/10/11 17:24:33;;;;;;;14.30;6.70;;;;;;;18.49;64.59;99935.94;133955;1287;22477;-74
2023/10/11 17:27:49;;;;;;;18.90;6.60;;;;;;;18.45;64.82;99938.41;134037;1300;23210;-75
2023/10/11 17:30:52;;;;;;;17.80;7.40;;;;;;;18.43;65.23;99941.20;134076;1304;22401;-74
2023/10/11 17:34:42;;;;;;;13.30;6.70;;;;;;;18.43;65.48;99941.58;134075;1300;23214;-74
2023/10/11 17:37:55;;;;;;;13.60;7.10;;;;;;;18.41;65.73;99932.48;134026;1298;22661;-74
2023/10/11 17:41:30;;;;;;;14.60;6.90;;;;;;;18.40;66.04;99932.98;134038;1299;23016;-76
2023/10/11 17:44:45;;;;;;;22.50;7.80;;;;;;;18.37;66.29;99933.28;133916;1300;22544;-76
2023/10/11 17:48:08;;;;;;;13.90;7.20;;;;;;;18.34;66.41;99938.45;133901;1291;22440;-76
2023/10/11 17:51:19;;;;;;;17.20;7.50;;;;;;;18.29;66.77;99936.64;134035;1297;22266;-75
2023/10/11 17:54:22;;;;;;;15.30;7.00;;;;;;;18.24;67.00;99935.52;134046;1300;22482;-75
2023/10/11 17:57:37;;;;;;;20.80;7.90;;;;;;;18.21;67.25;99935.52;133880;1297;24150;-75
2023/10/11 18:00:58;;;;;;;17.80;8.90;;;;;;;18.17;67.65;99935.46;134038;1305;22901;-74
2023/10/11 18:04:14;;;;;;;17.70;7.70;;;;;;;18.14;67.91;99939.46;134043;1303;22372;-74
2023/10/11 18:08:13;;;;;;;18.20;8.30;;;;;;;18.11;68.14;99938.40;134072;1299;22439;-75
2023/10/11 18:11:10;;;;;;;18.90;8.80;;;;;;;18.10;68.68;99937.18;133940;1298;22478;-74
2023/10/11 18:15:06;;;;;;;16.10;9.10;;;;;;;18.12;68.84;99936.59;134026;1300;22376;-74
2023/10/11 18:18:21;;;;;;;20.40;10.70;;;;;;;18.13;69.19;99934.60;134047;1299;22423;-74
2023/10/11 18:21:26;;;;;;;24.60;9.60;;;;;;;18.15;69.83;99934.45;134087;1297;22437;-75
2023/10/11 18:24:32;;;;;;;17.30;9.20;;;;;;;18.18;69.96;99920.85;134054;1299;22439;-75
2023/10/11 18:28:16;;;;;;;;;;;;;;;;;;;;;
2023/10/11 18:31:49;;;;;;;;;;;;;;;;;;;;;
2023/10/11 18:35:11;;;;;;;19.20;10.00;;;;;;;18.24;70.43;99917.73;134074;1303;22444;-74
2023/10/11 18:38:46;;;;;;;16.20;8.80;;;;;;;18.27;70.57;99917.23;134006;1299;22428;-74
2023/10/11 18:42:07;;;;;;;19.50;10.50;;;;;;;18.30;70.68;99911.91;133732;1297;22459;-74
2023/10/11 18:45:43;;;;;;;20.60;11.00;;;;;;;18.32;70.71;99905.94;133919;1297;23057;-75
2023/10/11 18:48:54;;;;;;;23.60;10.70;;;;;;;18.34;70.87;99903.16;134091;1297;22436;-74
2023/10/11 18:52:04;;;;;;;28.40;11.20;;;;;;;18.34;70.78;99903.08;133891;1304;23342;-75
2023/10/11 18:55:10;;;;;;;20.80;10.80;;;;;;;18.33;70.89;99899.27;133740;1297;416822;-75
2023/10/11 18:58:18;;;;;;;16.70;10.30;;;;;;;18.33;70.88;99901.81;133862;1298;22449;-75
2023/10/11 19:01:42;;;;;;;22.00;10.70;;;;;;;18.33;70.90;99902.27;134094;1298;22502;-75
2023/10/11 19:04:49;;;;;;;19.00;11.20;;;;;;;18.31;70.98;99901.99;133434;1301;22435;-76
2023/10/11 19:07:51;;;;;;;21.20;11.10;;;;;;;18.30;71.01;99902.05;133454;1308;22506;-76
2023/10/11 19:11:16;;;;;;;22.70;11.20;;;;;;;18.30;71.20;99896.39;133305;1303;22258;-76